createdAt,value
2018-06-30T00:00:27.691Z,99.90
2018-06-30T00:01:31.792Z,99.90
2018-06-30T00:02:35.908Z,99.90
2018-06-30T00:03:45.348Z,99.90
2018-06-30T00:04:51.944Z,99.90
2018-06-30T00:05:56.020Z,99.90
2018-06-30T00:07:00.095Z,99.90
2018-06-30T00:08:04.226Z,99.90
2018-06-30T00:09:09.098Z,99.90
2018-06-30T00:10:14.488Z,99.90
2018-06-30T00:11:18.744Z,99.90
2018-06-30T00:12:22.785Z,99.90
2018-06-30T00:13:26.858Z,99.90
2018-06-30T00:14:30.918Z,99.90
2018-06-30T00:15:34.940Z,99.90
2018-06-30T00:16:39.041Z,99.90
2018-06-30T00:17:43.157Z,99.90
2018-06-30T00:19:50.900Z,99.90
2018-06-30T00:20:55.065Z,99.90
2018-06-30T00:21:59.099Z,99.90
2018-06-30T00:23:03.324Z,99.90
2018-06-30T00:24:07.492Z,99.90
2018-06-30T00:25:11.538Z,99.90
2018-06-30T00:27:24.630Z,99.90
2018-06-30T00:28:28.706Z,99.90
2018-06-30T00:29:32.772Z,99.90
2018-06-30T00:30:36.823Z,99.90
2018-06-30T00:31:40.922Z,99.90
2018-06-30T00:32:44.973Z,99.90
2018-06-30T00:33:49.072Z,99.90
2018-06-30T00:34:53.377Z,99.90
2018-06-30T00:35:57.562Z,99.90
2018-06-30T00:37:01.676Z,99.90
2018-06-30T00:38:05.696Z,99.90
2018-06-30T00:39:10.306Z,99.90
2018-06-30T00:40:14.374Z,99.90
2018-06-30T00:41:18.981Z,99.90
2018-06-30T00:42:23.019Z,99.90
2018-06-30T00:43:27.102Z,99.90
2018-06-30T00:44:31.164Z,99.90
2018-06-30T00:45:35.286Z,99.90
2018-06-30T00:46:39.343Z,99.90
2018-06-30T00:47:43.475Z,99.90
2018-06-30T00:48:47.500Z,99.90
2018-06-30T00:49:51.664Z,99.90
2018-06-30T00:50:55.733Z,99.90
2018-06-30T00:51:59.860Z,99.90
2018-06-30T00:53:03.941Z,99.90
2018-06-30T00:54:08.006Z,99.90
2018-06-30T00:55:12.074Z,99.90
2018-06-30T00:56:16.139Z,99.90
2018-06-30T00:57:20.287Z,99.90
2018-06-30T00:58:24.330Z,99.90
2018-06-30T00:59:28.416Z,99.90
2018-06-30T01:00:32.468Z,99.90
2018-06-30T01:01:36.515Z,99.90
2018-06-30T01:02:40.611Z,99.90
2018-06-30T01:03:44.718Z,99.90
2018-06-30T01:04:48.822Z,99.90
2018-06-30T01:05:52.890Z,99.90
2018-06-30T01:06:57.137Z,99.90
2018-06-30T01:08:01.213Z,99.90
2018-06-30T01:09:07.128Z,99.90
2018-06-30T01:10:11.336Z,99.90
2018-06-30T01:11:15.389Z,99.90
2018-06-30T01:12:19.439Z,99.90
2018-06-30T01:13:23.602Z,99.90
2018-06-30T01:14:27.961Z,99.90
2018-06-30T01:15:32.020Z,99.90
2018-06-30T01:16:36.135Z,99.90
2018-06-30T01:17:40.147Z,99.90
2018-06-30T01:18:44.239Z,99.90
2018-06-30T01:19:48.276Z,99.90
2018-06-30T01:20:52.364Z,99.90
2018-06-30T01:21:56.377Z,99.90
2018-06-30T01:23:00.519Z,99.90
2018-06-30T01:24:04.941Z,99.90
2018-06-30T01:25:09.078Z,99.90
2018-06-30T01:26:13.123Z,99.90
2018-06-30T01:27:17.207Z,99.90
2018-06-30T01:28:21.349Z,99.90
2018-06-30T01:29:25.479Z,99.90
2018-06-30T01:30:29.530Z,99.90
2018-06-30T01:31:33.688Z,99.90
2018-06-30T01:32:37.751Z,99.90
2018-06-30T01:33:41.813Z,99.90
2018-06-30T01:34:45.836Z,99.90
2018-06-30T01:35:49.847Z,99.90
2018-06-30T01:36:53.923Z,99.90
2018-06-30T01:37:58.027Z,99.90
2018-06-30T01:39:02.203Z,99.90
2018-06-30T01:40:06.432Z,99.90
2018-06-30T01:41:10.585Z,99.90
2018-06-30T01:42:14.757Z,99.90
2018-06-30T01:43:18.789Z,99.90
2018-06-30T01:44:22.846Z,99.90
2018-06-30T01:45:26.894Z,99.90
2018-06-30T01:46:31.000Z,99.90
2018-06-30T01:47:35.062Z,99.90
2018-06-30T01:48:39.141Z,99.90
2018-06-30T01:49:43.191Z,99.90
2018-06-30T01:50:47.250Z,99.90
2018-06-30T01:51:52.027Z,99.90
2018-06-30T01:52:56.263Z,99.90
2018-06-30T01:54:00.325Z,99.90
2018-06-30T01:55:04.440Z,99.90
2018-06-30T01:56:08.478Z,99.90
2018-06-30T01:57:12.486Z,99.90
2018-06-30T01:58:16.640Z,99.90
2018-06-30T02:00:24.474Z,99.90
2018-06-30T02:01:28.632Z,99.90
2018-06-30T02:02:32.783Z,99.90
2018-06-30T02:03:36.857Z,99.90
2018-06-30T02:04:40.918Z,99.90
2018-06-30T02:05:44.992Z,99.90
2018-06-30T02:06:49.033Z,99.90
2018-06-30T02:07:53.180Z,99.90
2018-06-30T02:08:57.325Z,99.90
2018-06-30T02:10:01.377Z,99.90
2018-06-30T02:11:05.742Z,99.90
2018-06-30T02:12:09.904Z,99.90
2018-06-30T02:13:14.069Z,99.90
2018-06-30T02:14:18.160Z,99.90
2018-06-30T02:15:22.221Z,99.90
2018-06-30T02:16:26.315Z,99.90
2018-06-30T02:17:30.454Z,99.90
2018-06-30T02:18:34.554Z,99.90
2018-06-30T02:19:38.723Z,99.90
2018-06-30T02:20:42.821Z,99.90
2018-06-30T02:21:46.959Z,99.90
2018-06-30T02:22:51.128Z,99.90
2018-06-30T02:23:55.203Z,99.90
2018-06-30T02:24:59.303Z,99.90
2018-06-30T02:26:03.708Z,99.90
2018-06-30T02:27:07.848Z,99.90
2018-06-30T02:28:12.014Z,99.90
2018-06-30T02:29:16.119Z,99.90
2018-06-30T02:30:20.224Z,99.90
2018-06-30T02:31:24.263Z,99.90
2018-06-30T02:32:28.327Z,99.90
2018-06-30T02:33:32.464Z,99.90
2018-06-30T02:35:40.717Z,99.90
2018-06-30T02:36:44.775Z,99.90
2018-06-30T02:37:48.821Z,99.90
2018-06-30T02:38:53.031Z,99.90
2018-06-30T02:39:57.152Z,99.90
2018-06-30T02:41:01.315Z,99.90
2018-06-30T02:42:05.392Z,99.90
2018-06-30T02:43:09.406Z,99.90
2018-06-30T02:44:13.496Z,99.90
2018-06-30T02:45:17.578Z,99.90
2018-06-30T02:46:21.583Z,99.90
2018-06-30T02:47:25.587Z,99.90
2018-06-30T02:48:29.965Z,99.90
2018-06-30T02:49:34.126Z,99.90
2018-06-30T02:50:38.219Z,99.90
2018-06-30T02:51:42.283Z,99.90
2018-06-30T02:52:46.317Z,99.90
2018-06-30T02:53:50.428Z,99.90
2018-06-30T02:54:54.595Z,99.90
2018-06-30T02:55:58.664Z,99.90
2018-06-30T02:57:02.829Z,99.90
2018-06-30T02:58:06.883Z,99.90
2018-06-30T02:59:10.927Z,99.90
2018-06-30T03:00:14.981Z,99.90
2018-06-30T03:01:19.439Z,99.90
2018-06-30T03:02:23.519Z,99.90
2018-06-30T03:03:27.606Z,99.90
2018-06-30T03:04:31.651Z,99.90
2018-06-30T03:05:35.714Z,99.90
2018-06-30T03:06:39.789Z,99.90
2018-06-30T03:07:43.921Z,99.90
2018-06-30T03:08:47.970Z,99.90
2018-06-30T03:09:52.068Z,99.90
2018-06-30T03:10:56.347Z,99.90
2018-06-30T03:12:00.373Z,99.90
2018-06-30T03:13:04.688Z,99.90
2018-06-30T03:14:08.819Z,99.90
2018-06-30T03:15:12.914Z,99.90
2018-06-30T03:16:17.981Z,99.90
2018-06-30T03:17:22.083Z,99.90
2018-06-30T03:18:26.201Z,99.90
2018-06-30T03:19:30.224Z,99.90
2018-06-30T03:20:34.374Z,99.90
2018-06-30T03:21:38.480Z,99.90
2018-06-30T03:22:42.519Z,99.90
2018-06-30T03:24:50.210Z,99.90
2018-06-30T03:25:54.254Z,99.90
2018-06-30T03:26:58.315Z,99.90
2018-06-30T03:28:02.377Z,99.90
2018-06-30T03:29:06.492Z,99.90
2018-06-30T03:30:10.560Z,99.90
2018-06-30T03:31:14.635Z,99.90
2018-06-30T03:32:18.704Z,99.90
2018-06-30T03:33:22.945Z,99.90
2018-06-30T03:34:26.951Z,99.90
2018-06-30T03:35:31.008Z,99.90
2018-06-30T03:36:35.215Z,99.90
2018-06-30T03:37:39.247Z,99.90
2018-06-30T03:38:43.326Z,99.90
2018-06-30T03:39:47.379Z,99.90
2018-06-30T03:40:51.458Z,99.90
2018-06-30T03:41:55.476Z,99.90
2018-06-30T03:42:59.739Z,99.90
2018-06-30T03:44:03.807Z,99.90
2018-06-30T03:45:07.869Z,99.90
2018-06-30T03:46:11.965Z,99.90
2018-06-30T03:47:16.028Z,99.90
2018-06-30T03:48:20.048Z,99.90
2018-06-30T03:49:24.143Z,99.90
2018-06-30T03:50:28.287Z,99.90
2018-06-30T03:51:32.321Z,99.90
2018-06-30T03:52:36.359Z,99.90
2018-06-30T03:53:40.487Z,99.90
2018-06-30T03:54:44.688Z,99.90
2018-06-30T03:55:48.716Z,99.90
2018-06-30T03:56:52.789Z,99.90
2018-06-30T03:57:56.939Z,99.90
2018-06-30T03:59:00.978Z,99.90
2018-06-30T04:00:05.775Z,99.90
2018-06-30T04:01:09.911Z,99.90
2018-06-30T04:02:14.028Z,99.90
2018-06-30T04:03:18.156Z,99.90
2018-06-30T04:04:22.252Z,99.90
2018-06-30T04:05:26.263Z,99.90
2018-06-30T04:06:30.272Z,99.90
2018-06-30T04:07:34.779Z,99.90
2018-06-30T04:09:42.535Z,99.90
2018-06-30T04:10:46.710Z,99.90
2018-06-30T04:11:50.810Z,99.90
2018-06-30T04:12:54.853Z,99.90
2018-06-30T04:13:58.929Z,99.90
2018-06-30T04:15:03.155Z,99.90
2018-06-30T04:16:07.237Z,99.90
2018-06-30T04:17:11.294Z,99.90
2018-06-30T04:18:15.347Z,99.90
2018-06-30T04:19:19.406Z,99.90
2018-06-30T04:20:23.434Z,99.90
2018-06-30T04:21:27.502Z,99.90
2018-06-30T04:22:31.656Z,99.90
2018-06-30T04:23:35.725Z,99.90
2018-06-30T04:24:39.931Z,99.90
2018-06-30T04:25:44.021Z,99.90
2018-06-30T04:26:48.186Z,99.90
2018-06-30T04:27:52.247Z,99.90
2018-06-30T04:28:56.322Z,99.90
2018-06-30T04:30:00.367Z,99.90
2018-06-30T04:31:04.580Z,99.90
2018-06-30T04:32:08.659Z,99.90
2018-06-30T04:33:12.750Z,99.90
2018-06-30T04:34:16.858Z,99.90
2018-06-30T04:35:20.958Z,99.90
2018-06-30T04:36:24.968Z,99.90
2018-06-30T04:37:29.114Z,99.90
2018-06-30T04:38:33.367Z,99.90
2018-06-30T04:39:37.455Z,99.90
2018-06-30T04:40:41.505Z,99.90
2018-06-30T04:41:45.550Z,99.90
2018-06-30T04:42:49.701Z,99.90
2018-06-30T04:43:53.753Z,99.90
2018-06-30T04:44:57.801Z,99.90
2018-06-30T04:46:01.853Z,99.90
2018-06-30T04:47:06.034Z,99.90
2018-06-30T04:48:10.108Z,99.90
2018-06-30T04:49:14.133Z,99.90
2018-06-30T04:50:18.135Z,99.90
2018-06-30T04:51:22.164Z,99.90
2018-06-30T04:52:26.218Z,99.90
2018-06-30T04:53:30.242Z,99.90
2018-06-30T04:54:34.275Z,99.90
2018-06-30T04:55:38.370Z,99.90
2018-06-30T04:56:42.436Z,99.90
2018-06-30T04:57:46.622Z,99.90
2018-06-30T04:58:50.693Z,99.90
2018-06-30T05:00:58.501Z,99.90
2018-06-30T05:02:02.598Z,99.90
2018-06-30T05:03:06.690Z,99.90
2018-06-30T05:04:10.736Z,99.90
2018-06-30T05:05:14.807Z,99.90
2018-06-30T05:06:18.896Z,99.90
2018-06-30T05:07:22.955Z,99.90
2018-06-30T05:08:27.254Z,99.90
2018-06-30T05:09:31.356Z,99.90
2018-06-30T05:10:35.371Z,99.90
2018-06-30T05:11:39.460Z,99.90
2018-06-30T05:12:43.544Z,99.90
2018-06-30T05:13:48.213Z,99.90
2018-06-30T05:14:52.309Z,99.90
2018-06-30T05:15:56.495Z,99.90
2018-06-30T05:17:00.539Z,99.90
2018-06-30T05:18:04.589Z,99.90
2018-06-30T05:19:08.760Z,99.90
2018-06-30T05:20:12.853Z,99.90
2018-06-30T05:21:16.925Z,99.90
2018-06-30T05:22:20.952Z,99.90
2018-06-30T05:23:25.170Z,99.90
2018-06-30T05:24:29.232Z,99.90
2018-06-30T05:25:33.555Z,99.90
2018-06-30T05:26:37.670Z,99.90
2018-06-30T05:27:41.706Z,99.90
2018-06-30T05:28:45.768Z,99.90
2018-06-30T05:29:49.919Z,99.90
2018-06-30T05:30:54.085Z,99.90
2018-06-30T05:31:58.218Z,99.90
2018-06-30T05:33:02.268Z,99.90
2018-06-30T05:34:06.496Z,99.90
2018-06-30T05:35:10.597Z,99.90
2018-06-30T05:36:14.875Z,99.90
2018-06-30T05:37:19.084Z,99.90
2018-06-30T05:38:23.221Z,99.90
2018-06-30T05:39:27.427Z,99.90
2018-06-30T05:40:31.491Z,99.90
2018-06-30T05:41:35.694Z,99.90
2018-06-30T05:42:39.779Z,99.90
2018-06-30T05:43:43.872Z,99.90
2018-06-30T05:44:47.994Z,99.90
2018-06-30T05:45:52.035Z,99.90
2018-06-30T05:47:59.778Z,99.90
2018-06-30T05:49:03.806Z,99.90
2018-06-30T05:50:07.867Z,99.90
2018-06-30T05:51:11.879Z,99.90
2018-06-30T05:52:15.925Z,99.90
2018-06-30T05:53:19.997Z,99.90
2018-06-30T05:54:24.046Z,99.90
2018-06-30T05:55:28.250Z,99.90
2018-06-30T05:56:32.351Z,99.90
2018-06-30T05:57:36.524Z,99.90
2018-06-30T05:58:40.526Z,99.90
2018-06-30T05:59:44.607Z,99.90
2018-06-30T06:00:48.676Z,99.90
2018-06-30T06:01:53.305Z,99.90
2018-06-30T06:02:57.373Z,99.90
2018-06-30T06:04:01.571Z,99.90
2018-06-30T06:05:06.440Z,99.90
2018-06-30T06:06:10.502Z,99.90
2018-06-30T06:07:14.681Z,99.90
2018-06-30T06:08:18.713Z,99.90
2018-06-30T06:10:26.460Z,99.90
2018-06-30T06:11:30.564Z,99.90
2018-06-30T06:12:34.701Z,99.90
2018-06-30T06:13:38.799Z,99.90
2018-06-30T06:14:42.842Z,99.90
2018-06-30T06:15:46.922Z,99.90
2018-06-30T06:17:54.925Z,99.90
2018-06-30T06:18:59.857Z,99.90
2018-06-30T06:20:04.459Z,99.90
2018-06-30T06:21:08.601Z,99.90
2018-06-30T06:22:12.616Z,99.90
2018-06-30T06:23:16.673Z,99.90
2018-06-30T06:24:20.749Z,99.90
2018-06-30T06:25:24.791Z,99.90
2018-06-30T06:26:28.846Z,99.90
2018-06-30T06:27:32.902Z,99.90
2018-06-30T06:28:36.951Z,99.90
2018-06-30T06:29:40.985Z,99.90
2018-06-30T06:30:45.071Z,99.90
2018-06-30T06:31:49.100Z,99.90
2018-06-30T06:32:53.253Z,99.90
2018-06-30T06:33:57.217Z,99.90
2018-06-30T06:35:01.271Z,99.90
2018-06-30T06:36:05.386Z,99.90
2018-06-30T06:37:09.406Z,99.90
2018-06-30T06:38:13.475Z,99.90
2018-06-30T06:39:17.635Z,99.90
2018-06-30T06:40:21.684Z,99.90
2018-06-30T06:41:25.734Z,99.90
2018-06-30T06:42:29.878Z,99.90
2018-06-30T06:43:33.990Z,99.90
2018-06-30T06:44:38.067Z,99.90
2018-06-30T06:45:42.126Z,99.90
2018-06-30T06:46:46.161Z,99.90
2018-06-30T06:47:50.725Z,99.90
2018-06-30T06:48:55.183Z,99.90
2018-06-30T06:50:00.405Z,99.90
2018-06-30T06:51:04.628Z,99.90
2018-06-30T06:52:08.708Z,99.90
2018-06-30T06:53:12.818Z,99.90
2018-06-30T06:54:16.941Z,99.90
2018-06-30T06:55:21.006Z,99.90
2018-06-30T06:56:25.113Z,99.90
2018-06-30T06:57:29.166Z,99.90
2018-06-30T06:58:33.240Z,99.90
2018-06-30T06:59:37.314Z,99.90
2018-06-30T07:00:41.361Z,99.90
2018-06-30T07:01:45.422Z,99.90
2018-06-30T07:02:49.534Z,99.90
2018-06-30T07:03:53.620Z,99.90
2018-06-30T07:04:57.640Z,99.90
2018-06-30T07:06:01.736Z,99.90
2018-06-30T07:07:05.791Z,99.90
2018-06-30T07:08:09.859Z,99.90
2018-06-30T07:09:14.057Z,99.90
2018-06-30T07:10:18.056Z,99.90
2018-06-30T07:11:22.115Z,99.90
2018-06-30T07:12:26.250Z,99.90
2018-06-30T07:13:30.302Z,99.90
2018-06-30T07:14:34.677Z,99.90
2018-06-30T07:15:38.636Z,99.90
2018-06-30T07:17:46.379Z,99.90
2018-06-30T07:18:50.503Z,99.90
2018-06-30T07:19:57.384Z,99.90
2018-06-30T07:21:01.486Z,99.90
2018-06-30T07:22:05.531Z,99.90
2018-06-30T07:23:09.570Z,99.90
2018-06-30T07:24:13.644Z,99.90
2018-06-30T07:25:17.742Z,99.90
2018-06-30T07:26:21.892Z,99.90
2018-06-30T07:27:25.941Z,99.90
2018-06-30T07:28:30.079Z,99.90
2018-06-30T07:29:34.188Z,99.90
2018-06-30T07:30:38.664Z,99.90
2018-06-30T07:31:43.127Z,99.90
2018-06-30T07:32:47.289Z,99.90
2018-06-30T07:33:51.380Z,99.90
2018-06-30T07:34:55.534Z,99.90
2018-06-30T07:35:59.550Z,99.90
2018-06-30T07:37:03.882Z,99.90
2018-06-30T07:38:08.014Z,99.90
2018-06-30T07:39:12.057Z,99.90
2018-06-30T07:40:16.098Z,99.90
2018-06-30T07:41:20.198Z,99.90
2018-06-30T07:42:24.255Z,99.90
2018-06-30T07:43:28.335Z,99.90
2018-06-30T07:44:32.435Z,99.90
2018-06-30T07:45:36.486Z,99.90
2018-06-30T07:46:40.630Z,99.90
2018-06-30T07:47:44.680Z,99.90
2018-06-30T07:48:48.850Z,99.90
2018-06-30T07:49:52.883Z,99.90
2018-06-30T07:50:57.049Z,99.90
2018-06-30T07:52:01.296Z,99.90
2018-06-30T07:53:05.595Z,99.90
2018-06-30T07:54:09.851Z,99.90
2018-06-30T07:55:13.719Z,99.90
2018-06-30T07:56:17.798Z,99.90
2018-06-30T07:57:22.094Z,99.90
2018-06-30T07:58:26.172Z,99.90
2018-06-30T07:59:30.309Z,99.90
2018-06-30T08:00:34.345Z,99.90
2018-06-30T08:01:38.409Z,99.90
2018-06-30T08:02:42.472Z,99.90
2018-06-30T08:03:46.511Z,99.90
2018-06-30T08:04:50.542Z,99.90
2018-06-30T08:05:54.594Z,99.90
2018-06-30T08:06:58.638Z,99.90
2018-06-30T08:08:02.837Z,99.90
2018-06-30T08:09:08.829Z,99.90
2018-06-30T08:10:12.987Z,99.90
2018-06-30T08:11:17.025Z,99.90
2018-06-30T08:12:21.036Z,99.90
2018-06-30T08:14:28.767Z,99.90
2018-06-30T08:15:32.843Z,99.90
2018-06-30T08:16:36.918Z,99.90
2018-06-30T08:17:40.959Z,99.90
2018-06-30T08:18:45.000Z,99.90
2018-06-30T08:19:49.145Z,99.90
2018-06-30T08:20:53.314Z,99.90
2018-06-30T08:21:57.356Z,99.90
2018-06-30T08:23:01.426Z,99.90
2018-06-30T08:24:05.496Z,99.90
2018-06-30T08:25:09.542Z,99.90
2018-06-30T08:26:13.794Z,99.90
2018-06-30T08:27:17.891Z,99.90
2018-06-30T08:28:21.957Z,99.90
2018-06-30T08:29:26.049Z,99.90
2018-06-30T08:30:30.072Z,99.90
2018-06-30T08:31:34.152Z,99.90
2018-06-30T08:32:38.292Z,99.90
2018-06-30T08:33:42.360Z,99.90
2018-06-30T08:34:46.367Z,99.90
2018-06-30T08:35:50.452Z,99.90
2018-06-30T08:36:54.703Z,99.90
2018-06-30T08:37:58.772Z,99.90
2018-06-30T08:39:02.930Z,99.90
2018-06-30T08:40:07.393Z,99.90
2018-06-30T08:41:11.447Z,99.90
2018-06-30T08:42:15.538Z,99.90
2018-06-30T08:43:19.619Z,99.90
2018-06-30T08:44:23.682Z,99.90
2018-06-30T08:45:27.892Z,99.90
2018-06-30T08:46:32.000Z,99.90
2018-06-30T08:47:36.033Z,99.90
2018-06-30T08:48:40.043Z,99.90
2018-06-30T08:49:44.065Z,99.90
2018-06-30T08:50:48.804Z,99.90
2018-06-30T08:51:53.092Z,99.90
2018-06-30T08:52:57.125Z,99.90
2018-06-30T08:54:01.283Z,99.90
2018-06-30T08:55:05.341Z,99.90
2018-06-30T08:56:09.483Z,99.90
2018-06-30T08:57:13.527Z,99.90
2018-06-30T08:58:17.758Z,99.90
2018-06-30T08:59:21.788Z,99.90
2018-06-30T09:00:25.846Z,99.90
2018-06-30T09:01:29.872Z,99.90
2018-06-30T09:02:34.017Z,99.90
2018-06-30T09:03:38.181Z,99.90
2018-06-30T09:04:42.260Z,99.90
2018-06-30T09:05:46.287Z,99.90
2018-06-30T09:06:50.311Z,99.90
2018-06-30T09:07:54.326Z,99.90
2018-06-30T09:08:58.366Z,99.90
2018-06-30T09:10:02.820Z,99.90
2018-06-30T09:11:06.911Z,99.90
2018-06-30T09:12:10.933Z,99.90
2018-06-30T09:14:18.646Z,99.90
2018-06-30T09:15:22.672Z,99.90
2018-06-30T09:16:26.784Z,99.90
2018-06-30T09:17:30.783Z,99.90
2018-06-30T09:18:34.822Z,99.90
2018-06-30T09:19:39.314Z,99.90
2018-06-30T09:20:43.398Z,99.90
2018-06-30T09:21:47.439Z,99.90
2018-06-30T09:22:51.426Z,99.90
2018-06-30T09:23:55.604Z,99.90
2018-06-30T09:24:59.946Z,99.90
2018-06-30T09:27:07.652Z,99.90
2018-06-30T09:28:11.730Z,99.90
2018-06-30T09:29:15.754Z,99.90
2018-06-30T09:30:19.782Z,99.70
2018-06-30T09:31:23.913Z,99.50
2018-06-30T09:32:27.965Z,99.70
2018-06-30T09:33:32.015Z,99.30
2018-06-30T09:34:36.074Z,98.40
2018-06-30T09:35:40.106Z,98.30
2018-06-30T09:36:44.143Z,98.10
2018-06-30T09:37:48.202Z,97.30
2018-06-30T09:38:52.322Z,97.40
2018-06-30T09:39:56.414Z,97.80
2018-06-30T09:41:00.456Z,98.20
2018-06-30T09:42:04.523Z,98.30
2018-06-30T09:43:08.837Z,96.70
2018-06-30T09:44:12.850Z,95.90
2018-06-30T09:45:16.894Z,96.00
2018-06-30T09:46:20.914Z,95.70
2018-06-30T09:47:24.959Z,96.60
2018-06-30T09:48:29.051Z,96.90
2018-06-30T09:49:33.116Z,96.50
2018-06-30T09:50:37.175Z,95.40
2018-06-30T09:51:41.205Z,95.70
2018-06-30T09:52:45.225Z,95.20
2018-06-30T09:53:49.290Z,94.30
2018-06-30T09:54:53.514Z,93.80
2018-06-30T09:55:57.636Z,94.50
2018-06-30T09:57:01.856Z,94.90
2018-06-30T09:58:05.947Z,95.10
2018-06-30T09:59:09.960Z,94.90
2018-06-30T10:00:18.397Z,94.70
2018-06-30T10:01:22.434Z,94.50
2018-06-30T10:02:26.502Z,94.10
2018-06-30T10:03:30.611Z,93.00
2018-06-30T10:04:34.695Z,92.20
2018-06-30T10:05:39.092Z,91.70
2018-06-30T10:06:43.218Z,91.70
2018-06-30T10:07:47.347Z,91.70
2018-06-30T10:08:51.683Z,91.40
2018-06-30T10:09:55.925Z,90.20
2018-06-30T10:11:00.085Z,89.60
2018-06-30T10:12:04.168Z,91.40
2018-06-30T10:13:08.208Z,91.60
2018-06-30T10:14:12.385Z,92.10
2018-06-30T10:15:16.533Z,91.50
2018-06-30T10:16:20.802Z,92.00
2018-06-30T10:17:24.792Z,91.90
2018-06-30T10:18:28.878Z,91.90
2018-06-30T10:19:32.936Z,92.00
2018-06-30T10:20:36.943Z,92.20
2018-06-30T10:21:40.948Z,92.60
2018-06-30T10:22:44.990Z,92.60
2018-06-30T10:24:52.655Z,92.40
2018-06-30T10:25:56.863Z,92.70
2018-06-30T10:27:01.044Z,93.00
2018-06-30T10:28:05.321Z,93.20
2018-06-30T10:29:09.400Z,93.20
2018-06-30T10:30:13.579Z,93.10
2018-06-30T10:31:17.606Z,93.10
2018-06-30T10:32:21.694Z,93.10
2018-06-30T10:33:25.747Z,93.20
2018-06-30T10:34:29.926Z,93.40
2018-06-30T10:35:34.173Z,93.40
2018-06-30T10:36:38.316Z,93.40
2018-06-30T10:37:42.373Z,93.50
2018-06-30T10:38:46.411Z,93.30
2018-06-30T10:39:50.455Z,93.30
2018-06-30T10:40:54.577Z,93.50
2018-06-30T10:41:58.706Z,93.60
2018-06-30T10:43:02.760Z,94.20
2018-06-30T10:44:06.921Z,93.90
2018-06-30T10:45:11.028Z,93.90
2018-06-30T10:46:15.291Z,94.10
2018-06-30T10:47:19.309Z,94.20
2018-06-30T10:48:23.391Z,94.00
2018-06-30T10:49:27.437Z,94.10
2018-06-30T10:50:31.622Z,94.10
2018-06-30T10:51:35.681Z,93.80
2018-06-30T10:52:39.726Z,93.60
2018-06-30T10:53:43.989Z,93.70
2018-06-30T10:54:48.050Z,93.70
2018-06-30T10:55:52.099Z,93.80
2018-06-30T10:56:56.223Z,93.30
2018-06-30T10:58:00.323Z,93.30
2018-06-30T10:59:04.405Z,93.40
2018-06-30T11:00:08.839Z,93.60
2018-06-30T11:01:12.844Z,93.50
2018-06-30T11:02:16.921Z,93.50
2018-06-30T11:03:21.063Z,93.70
2018-06-30T11:04:25.095Z,93.70
2018-06-30T11:05:29.214Z,93.50
2018-06-30T11:06:33.246Z,93.30
2018-06-30T11:07:37.392Z,93.40
2018-06-30T11:08:41.475Z,92.90
2018-06-30T11:09:45.479Z,92.80
2018-06-30T11:10:49.738Z,92.80
2018-06-30T11:11:53.788Z,92.80
2018-06-30T11:12:58.036Z,92.90
2018-06-30T11:14:02.041Z,92.60
2018-06-30T11:15:06.371Z,92.60
2018-06-30T11:16:10.380Z,92.90
2018-06-30T11:17:14.450Z,92.90
2018-06-30T11:19:22.130Z,93.10
2018-06-30T11:20:26.157Z,93.10
2018-06-30T11:21:30.187Z,92.80
2018-06-30T11:22:34.247Z,92.40
2018-06-30T11:23:38.342Z,91.90
2018-06-30T11:24:42.530Z,91.70
2018-06-30T11:25:46.727Z,91.80
2018-06-30T11:26:50.791Z,92.10
2018-06-30T11:27:54.942Z,92.20
2018-06-30T11:28:58.970Z,92.30
2018-06-30T11:30:03.052Z,92.50
2018-06-30T11:31:07.260Z,92.50
2018-06-30T11:32:11.239Z,92.90
2018-06-30T11:33:15.314Z,92.30
2018-06-30T11:34:19.506Z,92.30
2018-06-30T11:35:23.551Z,91.70
2018-06-30T11:36:27.607Z,91.00
2018-06-30T11:37:31.877Z,91.20
2018-06-30T11:38:36.038Z,91.20
2018-06-30T11:39:40.102Z,91.20
2018-06-30T11:40:44.316Z,91.00
2018-06-30T11:41:48.347Z,91.40
2018-06-30T11:42:52.529Z,91.60
2018-06-30T11:43:56.710Z,91.60
2018-06-30T11:45:00.824Z,91.60
2018-06-30T11:46:04.857Z,91.70
2018-06-30T11:47:08.923Z,92.00
2018-06-30T11:48:13.106Z,91.70
2018-06-30T11:49:17.129Z,91.60
2018-06-30T11:50:21.315Z,91.90
2018-06-30T11:51:25.418Z,91.30
2018-06-30T11:52:29.465Z,91.10
2018-06-30T11:53:33.654Z,91.20
2018-06-30T11:54:37.858Z,91.00
2018-06-30T11:55:41.989Z,91.00
2018-06-30T11:56:46.059Z,90.70
2018-06-30T11:57:50.169Z,90.40
2018-06-30T11:58:54.314Z,90.50
2018-06-30T11:59:58.486Z,91.00
2018-06-30T12:01:02.588Z,90.70
2018-06-30T12:02:06.929Z,90.50
2018-06-30T12:03:10.943Z,90.90
2018-06-30T12:04:15.178Z,90.80
2018-06-30T12:05:19.454Z,91.20
2018-06-30T12:06:23.622Z,90.50
2018-06-30T12:07:27.599Z,90.20
2018-06-30T12:08:31.676Z,90.30
2018-06-30T12:09:35.770Z,90.70
2018-06-30T12:10:39.795Z,90.70
2018-06-30T12:11:43.792Z,91.00
2018-06-30T12:12:47.805Z,91.00
2018-06-30T12:13:51.814Z,90.70
2018-06-30T12:14:55.874Z,90.40
2018-06-30T12:15:59.924Z,90.60
2018-06-30T12:17:04.148Z,90.40
2018-06-30T12:18:08.433Z,90.00
2018-06-30T12:19:12.450Z,88.40
2018-06-30T12:20:16.483Z,88.30
2018-06-30T12:21:20.513Z,88.50
2018-06-30T12:22:24.585Z,88.80
2018-06-30T12:23:28.651Z,87.50
2018-06-30T12:24:32.822Z,87.50
2018-06-30T12:25:36.840Z,87.30
2018-06-30T12:26:40.842Z,87.30
2018-06-30T12:27:44.897Z,88.00
2018-06-30T12:28:48.935Z,87.80
2018-06-30T12:29:52.994Z,88.40
2018-06-30T12:30:57.083Z,89.00
2018-06-30T12:32:01.119Z,87.40
2018-06-30T12:33:05.134Z,87.60
2018-06-30T12:34:09.185Z,88.10
2018-06-30T12:35:13.229Z,88.60
2018-06-30T12:36:17.253Z,89.30
2018-06-30T12:37:21.286Z,90.00
2018-06-30T12:38:25.344Z,90.20
2018-06-30T12:39:29.393Z,90.20
2018-06-30T12:40:33.415Z,89.40
2018-06-30T12:41:37.937Z,89.20
2018-06-30T12:42:42.062Z,86.40
2018-06-30T12:43:46.471Z,86.20
2018-06-30T12:44:50.644Z,86.50
2018-06-30T12:45:54.763Z,86.90
2018-06-30T12:46:58.894Z,86.60
2018-06-30T12:48:02.955Z,86.10
2018-06-30T12:49:07.123Z,85.80
2018-06-30T12:50:11.232Z,86.40
2018-06-30T12:51:15.299Z,86.70
2018-06-30T12:52:19.607Z,85.20
2018-06-30T12:53:23.721Z,86.00
2018-06-30T12:54:27.894Z,85.20
2018-06-30T12:55:31.947Z,85.40
2018-06-30T12:56:35.969Z,85.00
2018-06-30T12:57:40.007Z,85.10
2018-06-30T12:58:44.094Z,85.30
2018-06-30T12:59:48.700Z,86.00
2018-06-30T13:00:52.792Z,86.20
2018-06-30T13:01:56.893Z,85.90
2018-06-30T13:03:00.952Z,86.60
2018-06-30T13:04:05.183Z,87.80
2018-06-30T13:05:09.234Z,87.50
2018-06-30T13:06:13.272Z,87.30
2018-06-30T13:07:17.305Z,87.80
2018-06-30T13:08:21.286Z,87.10
2018-06-30T13:09:25.306Z,87.10
2018-06-30T13:10:29.336Z,87.60
2018-06-30T13:11:33.363Z,87.80
2018-06-30T13:12:37.496Z,88.70
2018-06-30T13:13:41.586Z,89.20
2018-06-30T13:14:45.647Z,89.60
2018-06-30T13:15:49.875Z,89.30
2018-06-30T13:16:53.893Z,89.20
2018-06-30T13:17:58.094Z,89.60
2018-06-30T13:19:02.268Z,89.40
2018-06-30T13:20:06.350Z,88.10
2018-06-30T13:21:10.443Z,87.80
2018-06-30T13:22:14.551Z,88.70
2018-06-30T13:23:18.740Z,88.20
2018-06-30T13:24:22.756Z,88.00
2018-06-30T13:25:26.810Z,87.70
2018-06-30T13:26:30.882Z,87.60
2018-06-30T13:27:34.960Z,87.50
2018-06-30T13:28:39.033Z,87.50
2018-06-30T13:29:43.191Z,87.20
2018-06-30T13:30:47.240Z,86.90
2018-06-30T13:31:51.787Z,86.30
2018-06-30T13:32:55.811Z,86.70
2018-06-30T13:33:59.938Z,86.50
2018-06-30T13:35:04.120Z,85.50
2018-06-30T13:36:08.254Z,84.30
2018-06-30T13:37:12.467Z,84.90
2018-06-30T13:38:16.510Z,84.00
2018-06-30T13:39:20.584Z,84.30
2018-06-30T13:41:28.355Z,85.00
2018-06-30T13:42:32.501Z,84.20
2018-06-30T13:44:40.322Z,83.10
2018-06-30T13:45:44.412Z,83.70
2018-06-30T13:46:48.573Z,83.70
2018-06-30T13:47:52.582Z,83.30
2018-06-30T13:48:56.728Z,83.90
2018-06-30T13:50:00.796Z,83.30
2018-06-30T13:51:04.991Z,82.40
2018-06-30T13:52:09.115Z,82.40
2018-06-30T13:53:13.380Z,82.80
2018-06-30T13:54:17.484Z,82.20
2018-06-30T13:55:21.490Z,81.80
2018-06-30T13:56:25.625Z,82.40
2018-06-30T13:57:29.685Z,82.20
2018-06-30T13:58:33.831Z,81.90
2018-06-30T13:59:37.890Z,81.90
2018-06-30T14:00:41.988Z,81.40
2018-06-30T14:01:45.999Z,80.50
2018-06-30T14:02:50.082Z,80.10
2018-06-30T14:03:54.194Z,80.00
2018-06-30T14:04:58.217Z,79.50